createdAt,value
2023-03-18T00:00:41.942Z,3.50
2023-03-18T00:03:09.123Z,4.00
2023-03-18T00:05:36.220Z,3.50
2023-03-18T00:08:04.762Z,3.70
2023-03-18T00:10:33.716Z,3.70
2023-03-18T00:13:01.344Z,3.67
2023-03-18T00:15:29.203Z,3.53
2023-03-18T00:17:59.098Z,3.73
2023-03-18T00:20:38.697Z,3.77
2023-03-18T00:23:11.366Z,3.60
2023-03-18T00:25:39.119Z,4.10
2023-03-18T00:28:07.384Z,3.80
2023-03-18T00:30:34.952Z,3.33
2023-03-18T00:33:02.074Z,4.13
2023-03-18T00:35:30.544Z,4.43
2023-03-18T00:38:03.816Z,4.33
2023-03-18T00:40:43.195Z,4.27
2023-03-18T00:43:12.605Z,4.10
2023-03-18T00:45:40.589Z,4.40
2023-03-18T00:48:08.885Z,4.43
2023-03-18T00:50:36.957Z,4.27
2023-03-18T00:53:04.019Z,4.37
2023-03-18T00:55:31.054Z,3.97
2023-03-18T00:57:58.263Z,4.37
2023-03-18T01:00:28.834Z,4.83
2023-03-18T01:02:56.152Z,4.13
2023-03-18T01:05:24.450Z,4.37
2023-03-18T01:07:51.773Z,4.63
2023-03-18T01:10:18.888Z,4.30
2023-03-18T01:12:49.293Z,4.53
2023-03-18T01:15:17.861Z,4.83
2023-03-18T01:17:45.521Z,4.53
2023-03-18T01:20:13.401Z,5.17
2023-03-18T01:22:42.131Z,4.73
2023-03-18T01:25:10.515Z,4.70
2023-03-18T01:27:37.990Z,4.90
2023-03-18T01:30:05.843Z,4.40
2023-03-18T01:32:33.037Z,4.37
2023-03-18T01:35:00.156Z,4.97
2023-03-18T01:37:27.287Z,4.30
2023-03-18T01:39:56.011Z,4.70
2023-03-18T01:42:23.240Z,5.23
2023-03-18T01:44:50.701Z,4.60
2023-03-18T01:47:17.881Z,4.50
2023-03-18T01:49:47.242Z,3.90
2023-03-18T01:52:16.236Z,4.67
2023-03-18T01:54:45.837Z,4.70
2023-03-18T01:57:12.959Z,4.50
2023-03-18T01:59:41.882Z,4.47
2023-03-18T02:02:11.217Z,4.90
2023-03-18T02:04:41.146Z,4.40
2023-03-18T02:07:14.101Z,4.10
2023-03-18T02:09:41.139Z,4.30
2023-03-18T02:12:09.440Z,5.07
2023-03-18T02:14:36.500Z,4.37
2023-03-18T02:17:08.054Z,4.23
2023-03-18T02:19:47.730Z,4.10
2023-03-18T02:22:24.842Z,4.30
2023-03-18T02:25:10.668Z,5.27
2023-03-18T02:27:39.545Z,4.53
2023-03-18T02:30:21.332Z,4.60
2023-03-18T02:32:49.995Z,4.43
2023-03-18T02:35:17.202Z,4.43
2023-03-18T02:37:44.580Z,4.17
2023-03-18T02:40:14.434Z,4.33
2023-03-18T02:42:42.060Z,3.73
2023-03-18T02:45:14.020Z,4.17
2023-03-18T02:47:42.793Z,4.93
2023-03-18T02:50:10.518Z,3.70
2023-03-18T02:52:38.770Z,4.37
2023-03-18T02:55:07.086Z,3.97
2023-03-18T02:57:34.387Z,4.17
2023-03-18T03:00:01.455Z,4.50
2023-03-18T03:02:28.579Z,4.13
2023-03-18T03:04:56.374Z,3.17
2023-03-18T03:07:26.521Z,4.07
2023-03-18T03:09:53.594Z,4.00
2023-03-18T03:12:20.650Z,4.00
2023-03-18T03:14:47.698Z,4.43
2023-03-18T03:17:15.219Z,4.03
2023-03-18T03:19:42.640Z,4.17
2023-03-18T03:22:09.771Z,3.60
2023-03-18T03:24:36.857Z,3.87
2023-03-18T03:27:04.245Z,4.13
2023-03-18T03:29:31.364Z,3.87
2023-03-18T03:31:58.420Z,4.13
2023-03-18T03:34:25.841Z,3.73
2023-03-18T03:36:52.872Z,3.97
2023-03-18T03:39:20.025Z,3.93
2023-03-18T03:41:47.066Z,4.70
2023-03-18T03:44:14.137Z,3.90
2023-03-18T03:46:41.220Z,4.70
2023-03-18T03:49:08.352Z,3.97
2023-03-18T03:51:35.391Z,3.80
2023-03-18T03:54:02.479Z,3.80
2023-03-18T03:56:31.318Z,3.70
2023-03-18T03:59:00.100Z,3.90
2023-03-18T04:01:28.085Z,4.23
2023-03-18T04:03:55.720Z,4.13
2023-03-18T04:06:23.473Z,4.20
2023-03-18T04:08:50.694Z,4.23
2023-03-18T04:11:18.009Z,3.60
2023-03-18T04:13:45.560Z,4.40
2023-03-18T04:16:12.816Z,4.10
2023-03-18T04:18:40.139Z,4.33
2023-03-18T04:21:08.094Z,4.43
2023-03-18T04:23:35.274Z,3.97
2023-03-18T04:26:02.506Z,4.60
2023-03-18T04:28:29.521Z,4.53
2023-03-18T04:30:56.577Z,3.93
2023-03-18T04:33:23.620Z,5.07
2023-03-18T04:35:52.587Z,4.23
2023-03-18T04:38:20.401Z,3.97
2023-03-18T04:40:47.571Z,3.77
2023-03-18T04:43:15.264Z,4.27
2023-03-18T04:45:43.615Z,3.80
2023-03-18T04:48:10.671Z,4.07
2023-03-18T04:50:37.800Z,5.40
2023-03-18T04:53:04.851Z,4.27
2023-03-18T04:55:32.120Z,5.47
2023-03-18T04:57:59.354Z,4.73
2023-03-18T05:00:26.485Z,4.37
2023-03-18T05:02:53.543Z,3.93
2023-03-18T05:05:21.148Z,4.07
2023-03-18T05:07:48.241Z,4.63
2023-03-18T05:10:15.326Z,4.13
2023-03-18T05:12:42.617Z,4.93
2023-03-18T05:15:11.911Z,4.73
2023-03-18T05:17:40.717Z,4.20
2023-03-18T05:20:08.213Z,4.63
2023-03-18T05:22:35.563Z,4.73
2023-03-18T05:25:02.773Z,4.63
2023-03-18T05:27:29.927Z,3.90
2023-03-18T05:29:57.308Z,4.33
2023-03-18T05:32:24.778Z,4.60
2023-03-18T05:34:52.640Z,4.83
2023-03-18T05:37:19.766Z,4.60
2023-03-18T05:39:46.851Z,4.57
2023-03-18T05:42:14.173Z,4.57
2023-03-18T05:44:42.074Z,4.97
2023-03-18T05:47:12.396Z,4.67
2023-03-18T05:49:39.560Z,4.60
2023-03-18T05:52:06.773Z,4.80
2023-03-18T05:54:33.911Z,6.10
2023-03-18T05:57:00.977Z,4.97
2023-03-18T05:59:30.191Z,4.87
2023-03-18T06:01:57.366Z,4.27
2023-03-18T06:04:25.001Z,5.37
2023-03-18T06:06:52.046Z,4.90
2023-03-18T06:09:19.073Z,5.00
2023-03-18T06:11:46.138Z,4.67
2023-03-18T06:14:13.313Z,5.17
2023-03-18T06:16:41.663Z,5.00
2023-03-18T06:19:10.562Z,5.67
2023-03-18T06:21:38.545Z,5.17
2023-03-18T06:24:05.849Z,5.23
2023-03-18T06:26:32.964Z,4.93
2023-03-18T06:29:00.033Z,5.00
2023-03-18T06:31:27.291Z,4.70
2023-03-18T06:33:54.366Z,4.67
2023-03-18T06:36:22.457Z,5.00
2023-03-18T06:38:49.516Z,4.93
2023-03-18T06:41:16.654Z,4.77
2023-03-18T06:43:43.716Z,4.47
2023-03-18T06:46:10.817Z,4.57
2023-03-18T06:48:40.288Z,4.40
2023-03-18T06:51:07.828Z,5.10
2023-03-18T06:53:36.369Z,4.67
2023-03-18T06:56:04.214Z,5.00
2023-03-18T06:58:31.827Z,6.17
2023-03-18T07:00:59.387Z,5.10
2023-03-18T07:03:28.169Z,4.97
2023-03-18T07:05:56.020Z,5.60
2023-03-18T07:08:23.102Z,5.57
2023-03-18T07:10:52.639Z,5.50
2023-03-18T07:13:19.760Z,5.37
2023-03-18T07:15:46.875Z,5.10
2023-03-18T07:18:14.386Z,4.90
2023-03-18T07:20:41.811Z,5.40
2023-03-18T07:23:09.790Z,5.80
2023-03-18T07:25:36.835Z,5.40
2023-03-18T07:28:04.923Z,5.43
2023-03-18T07:30:33.200Z,6.37
2023-03-18T07:33:00.960Z,5.63
2023-03-18T07:35:28.705Z,6.13
2023-03-18T07:37:55.803Z,6.27
2023-03-18T07:40:23.487Z,5.80
2023-03-18T07:42:56.237Z,5.33
2023-03-18T07:45:23.869Z,5.57
2023-03-18T07:47:51.045Z,5.53
2023-03-18T07:50:18.460Z,5.43
2023-03-18T07:52:45.544Z,6.43
2023-03-18T07:55:12.558Z,7.20
2023-03-18T07:57:39.710Z,8.57
2023-03-18T08:00:07.789Z,8.60
2023-03-18T08:02:36.113Z,8.23
2023-03-18T08:05:03.903Z,8.57
2023-03-18T08:07:30.978Z,10.33
2023-03-18T08:09:58.278Z,9.70
2023-03-18T08:12:25.485Z,11.43
2023-03-18T08:14:52.547Z,10.83
2023-03-18T08:17:19.619Z,11.53
2023-03-18T08:19:48.763Z,10.87
2023-03-18T08:22:16.055Z,11.27
2023-03-18T08:24:45.463Z,11.47
2023-03-18T08:27:12.589Z,11.63
2023-03-18T08:29:39.699Z,10.30
2023-03-18T08:32:07.700Z,11.00
2023-03-18T08:34:35.838Z,13.03
2023-03-18T08:37:02.993Z,12.30
2023-03-18T08:39:30.064Z,11.63
2023-03-18T08:41:57.104Z,13.23
2023-03-18T08:44:24.655Z,13.77
2023-03-18T08:46:51.732Z,13.73
2023-03-18T08:49:18.818Z,12.40
2023-03-18T08:51:46.842Z,11.83
2023-03-18T08:54:14.672Z,13.53
2023-03-18T08:56:42.480Z,13.57
2023-03-18T08:59:10.307Z,12.73
2023-03-18T09:01:38.092Z,13.47
2023-03-18T09:04:05.236Z,13.90
2023-03-18T09:06:32.678Z,14.57
2023-03-18T09:08:59.721Z,12.47
2023-03-18T09:11:27.862Z,12.57
2023-03-18T09:13:54.926Z,11.93
2023-03-18T09:16:22.841Z,12.07
2023-03-18T09:18:49.996Z,12.00
2023-03-18T09:21:17.265Z,12.73
2023-03-18T09:23:44.411Z,13.20
2023-03-18T09:26:11.522Z,13.97
2023-03-18T09:28:38.692Z,15.27
2023-03-18T09:31:06.175Z,13.57
2023-03-18T09:33:33.437Z,14.17
2023-03-18T09:36:01.018Z,12.27
2023-03-18T09:38:28.093Z,11.43
2023-03-18T09:41:13.668Z,10.67
2023-03-18T09:43:57.281Z,9.83
2023-03-18T09:46:24.911Z,9.77
2023-03-18T09:49:24.590Z,9.77
2023-03-18T09:52:10.385Z,7.50
2023-03-18T09:54:40.955Z,6.83
2023-03-18T09:57:22.851Z,7.07
2023-03-18T09:59:54.823Z,7.43
2023-03-18T10:02:30.786Z,6.23
2023-03-18T10:04:59.378Z,7.73
2023-03-18T10:07:32.057Z,7.13
2023-03-18T10:10:06.684Z,7.53
2023-03-18T10:12:35.726Z,8.03
2023-03-18T10:15:06.610Z,8.30
2023-03-18T10:17:56.203Z,7.90
2023-03-18T10:20:35.424Z,8.67
2023-03-18T10:23:11.578Z,8.77
2023-03-18T10:25:40.955Z,10.27
2023-03-18T10:28:29.882Z,8.97
2023-03-18T10:31:07.067Z,9.20
2023-03-18T10:34:06.632Z,8.53
2023-03-18T10:36:39.912Z,8.60
2023-03-18T10:39:13.626Z,8.47
2023-03-18T10:41:42.830Z,8.37
2023-03-18T10:44:18.452Z,7.97
2023-03-18T10:46:47.639Z,7.17
2023-03-18T10:49:20.722Z,7.03
2023-03-18T10:51:47.775Z,7.97
2023-03-18T10:54:35.357Z,7.40
2023-03-18T10:57:02.395Z,6.80
2023-03-18T10:59:30.262Z,7.20
2023-03-18T11:02:04.413Z,6.30
2023-03-18T11:04:36.012Z,7.53
2023-03-18T11:07:04.295Z,8.27
2023-03-18T11:09:33.049Z,7.67
2023-03-18T11:12:07.114Z,7.63
2023-03-18T11:14:34.745Z,7.73
2023-03-18T11:17:02.935Z,6.70
2023-03-18T11:19:33.287Z,6.87
2023-03-18T11:22:02.136Z,6.83
2023-03-18T11:24:44.890Z,6.43
2023-03-18T11:27:32.317Z,5.83
2023-03-18T11:30:00.843Z,5.80
2023-03-18T11:32:28.705Z,5.73
2023-03-18T11:35:00.827Z,6.00
2023-03-18T11:37:48.196Z,5.93
2023-03-18T11:40:15.286Z,6.30
2023-03-18T11:42:43.155Z,5.33
2023-03-18T11:45:31.740Z,5.70
2023-03-18T11:47:58.888Z,5.80
2023-03-18T11:50:31.316Z,5.00
2023-03-18T11:53:05.622Z,4.40
2023-03-18T11:55:41.858Z,3.70
2023-03-18T11:58:24.989Z,4.17
2023-03-18T12:00:52.567Z,4.30
2023-03-18T12:03:38.321Z,3.93
2023-03-18T12:06:05.498Z,4.60
2023-03-18T12:08:54.402Z,4.33
2023-03-18T12:11:28.534Z,4.50
2023-03-18T12:13:58.713Z,4.43
2023-03-18T12:16:46.095Z,4.27
2023-03-18T12:19:31.956Z,5.37
2023-03-18T12:22:17.716Z,4.73
2023-03-18T12:24:45.397Z,4.23
2023-03-18T12:27:16.871Z,4.30
2023-03-18T12:29:53.585Z,4.17
2023-03-18T12:32:31.454Z,4.10
2023-03-18T12:35:02.575Z,4.53
2023-03-18T12:37:41.853Z,4.33
2023-03-18T12:40:21.292Z,4.40
2023-03-18T12:42:57.628Z,3.87
2023-03-18T12:45:27.425Z,3.73
2023-03-18T12:48:02.293Z,3.40
2023-03-18T12:50:50.096Z,3.00
2023-03-18T12:53:17.164Z,2.80
2023-03-18T12:55:49.211Z,2.50
2023-03-18T12:58:21.883Z,2.70
2023-03-18T13:00:52.308Z,2.67
2023-03-18T13:03:26.243Z,2.90
2023-03-18T13:06:01.193Z,2.60
2023-03-18T13:08:46.804Z,2.90
2023-03-18T13:11:32.947Z,3.13
2023-03-18T13:14:03.612Z,3.30
2023-03-18T13:16:32.256Z,2.90
2023-03-18T13:19:00.233Z,2.97
2023-03-18T13:21:30.526Z,3.30
2023-03-18T13:23:57.590Z,2.93
2023-03-18T13:26:30.643Z,3.60
2023-03-18T13:28:58.801Z,3.50
2023-03-18T13:31:31.876Z,3.10
2023-03-18T13:34:14.322Z,3.30
2023-03-18T13:36:59.907Z,2.90
2023-03-18T13:39:35.632Z,4.20
2023-03-18T13:42:05.892Z,2.67
2023-03-18T13:44:53.232Z,2.80
2023-03-18T13:47:22.020Z,2.43
2023-03-18T13:49:49.396Z,2.83
2023-03-18T13:52:25.069Z,2.10
2023-03-18T13:54:52.258Z,2.13
2023-03-18T13:57:33.441Z,2.00
2023-03-18T14:00:18.743Z,3.20
2023-03-18T14:02:47.951Z,2.60
2023-03-18T14:05:36.054Z,2.40
2023-03-18T14:08:07.272Z,2.07
2023-03-18T14:10:34.422Z,2.50
2023-03-18T14:13:21.425Z,2.23
2023-03-18T14:15:48.489Z,2.33
2023-03-18T14:18:19.518Z,2.50
2023-03-18T14:20:47.704Z,2.27
2023-03-18T14:23:29.893Z,2.30
2023-03-18T14:26:04.482Z,2.40
2023-03-18T14:28:42.662Z,2.13
2023-03-18T14:31:15.867Z,2.50
2023-03-18T14:33:51.125Z,2.40
2023-03-18T14:36:18.843Z,2.63
2023-03-18T14:38:47.980Z,3.23
2023-03-18T14:41:23.176Z,2.80
2023-03-18T14:44:09.093Z,2.30
2023-03-18T14:46:41.502Z,2.40
2023-03-18T14:49:27.448Z,3.03
2023-03-18T14:51:54.828Z,2.33
2023-03-18T14:54:24.438Z,2.20
2023-03-18T14:56:56.567Z,2.40
2023-03-18T14:59:26.405Z,3.23
2023-03-18T15:01:55.372Z,2.47
2023-03-18T15:04:26.756Z,3.27
2023-03-18T15:06:55.244Z,3.60
2023-03-18T15:09:34.805Z,2.97
2023-03-18T15:12:15.961Z,2.10
2023-03-18T15:14:43.044Z,2.20
2023-03-18T15:17:15.987Z,3.07
2023-03-18T15:19:43.713Z,3.60
2023-03-18T15:22:15.682Z,3.43
2023-03-18T15:24:42.752Z,2.40
2023-03-18T15:27:18.610Z,2.70
2023-03-18T15:29:52.576Z,2.27
2023-03-18T15:32:27.278Z,2.63
2023-03-18T15:34:56.052Z,2.50
2023-03-18T15:37:40.520Z,2.80
2023-03-18T15:40:18.104Z,2.50
2023-03-18T15:42:45.744Z,2.47
2023-03-18T15:45:18.893Z,2.30
2023-03-18T15:47:46.155Z,2.60
2023-03-18T15:50:16.215Z,2.80
2023-03-18T15:52:43.597Z,2.60
2023-03-18T15:55:29.195Z,2.60
2023-03-18T15:57:57.341Z,2.27
2023-03-18T16:00:24.730Z,2.57
2023-03-18T16:02:52.084Z,2.77
2023-03-18T16:05:20.693Z,2.90
2023-03-18T16:07:47.957Z,3.30
2023-03-18T16:10:20.451Z,3.60
2023-03-18T16:12:47.736Z,4.60
2023-03-18T16:15:16.847Z,5.57
2023-03-18T16:17:43.950Z,6.13
2023-03-18T16:20:24.509Z,7.23
2023-03-18T16:22:52.041Z,6.00
2023-03-18T16:25:19.581Z,6.97
2023-03-18T16:27:48.629Z,6.40
2023-03-18T16:30:20.475Z,6.07
2023-03-18T16:32:47.743Z,6.27
2023-03-18T16:35:18.025Z,6.27
2023-03-18T16:37:45.468Z,5.80
2023-03-18T16:40:20.344Z,6.20
2023-03-18T16:42:47.961Z,6.77
2023-03-18T16:45:16.992Z,7.40
2023-03-18T16:47:45.902Z,6.93
2023-03-18T16:50:23.150Z,6.90
2023-03-18T16:52:50.651Z,6.80
2023-03-18T16:55:19.345Z,7.13
2023-03-18T16:57:52.672Z,6.90
2023-03-18T17:00:22.768Z,7.07
2023-03-18T17:02:52.430Z,7.10
2023-03-18T17:05:20.996Z,7.27
2023-03-18T17:07:48.420Z,7.50
2023-03-18T17:10:17.201Z,7.17
2023-03-18T17:12:49.187Z,7.13
2023-03-18T17:15:17.778Z,7.73
2023-03-18T17:17:44.869Z,6.90
2023-03-18T17:20:16.594Z,7.10
2023-03-18T17:22:49.968Z,7.60
2023-03-18T17:25:17.450Z,7.53
2023-03-18T17:27:49.753Z,7.27
2023-03-18T17:30:17.098Z,7.20
2023-03-18T17:32:46.082Z,6.83
2023-03-18T17:35:14.734Z,7.43
2023-03-18T17:37:42.196Z,7.97
2023-03-18T17:40:10.802Z,8.33
2023-03-18T17:42:37.908Z,8.00
2023-03-18T17:45:17.107Z,8.60
2023-03-18T17:47:44.220Z,8.40
2023-03-18T17:50:15.658Z,9.13
2023-03-18T17:52:42.818Z,8.50
2023-03-18T17:55:22.477Z,9.10
2023-03-18T17:57:51.499Z,9.60
2023-03-18T18:00:21.366Z,9.73
2023-03-18T18:02:49.031Z,10.73
2023-03-18T18:05:16.990Z,10.70
2023-03-18T18:07:47.704Z,12.00
2023-03-18T18:10:16.370Z,12.20
2023-03-18T18:12:44.750Z,11.70
2023-03-18T18:15:18.239Z,12.27
2023-03-18T18:17:46.302Z,13.67
2023-03-18T18:20:15.242Z,13.60
2023-03-18T18:22:44.530Z,12.67
2023-03-18T18:25:16.688Z,12.40
2023-03-18T18:27:43.849Z,13.77
2023-03-18T18:30:17.986Z,14.27
2023-03-18T18:32:45.874Z,14.17
2023-03-18T18:35:15.558Z,13.67
2023-03-18T18:37:42.845Z,14.20
2023-03-18T18:40:10.935Z,14.10
2023-03-18T18:42:40.861Z,13.60
2023-03-18T18:45:09.640Z,15.70
2023-03-18T18:47:37.452Z,14.23
2023-03-18T18:50:05.839Z,14.97
2023-03-18T18:52:33.995Z,15.00
2023-03-18T18:55:01.237Z,15.70
2023-03-18T18:57:33.267Z,15.90
2023-03-18T19:00:00.424Z,14.27
2023-03-18T19:02:27.461Z,15.93
2023-03-18T19:04:54.792Z,16.00
2023-03-18T19:07:22.768Z,15.90
2023-03-18T19:09:50.415Z,16.03
2023-03-18T19:12:20.958Z,16.30
2023-03-18T19:14:48.700Z,17.30
2023-03-18T19:17:16.934Z,17.90
2023-03-18T19:19:44.810Z,17.93
2023-03-18T19:22:16.198Z,17.23
2023-03-18T19:24:43.812Z,16.97
2023-03-18T19:27:16.432Z,17.37
2023-03-18T19:29:43.906Z,18.10
2023-03-18T19:32:16.146Z,17.43
2023-03-18T19:34:46.027Z,18.27
2023-03-18T19:37:17.933Z,17.63
2023-03-18T19:39:47.529Z,17.33
2023-03-18T19:42:16.184Z,17.00
2023-03-18T19:44:44.134Z,17.03
2023-03-18T19:47:27.617Z,17.20
2023-03-18T19:49:55.085Z,17.30
2023-03-18T19:52:24.067Z,18.47
2023-03-18T19:54:52.106Z,17.40
2023-03-18T19:57:21.320Z,16.17
2023-03-18T19:59:49.011Z,16.07
2023-03-18T20:02:21.937Z,15.10
2023-03-18T20:04:54.898Z,15.20
2023-03-18T20:07:25.910Z,15.23
2023-03-18T20:09:53.642Z,15.10
2023-03-18T20:12:37.790Z,14.30
2023-03-18T20:15:11.513Z,15.47
2023-03-18T20:17:40.928Z,18.00
2023-03-18T20:20:14.588Z,16.60
2023-03-18T20:22:47.993Z,16.80
2023-03-18T20:25:20.218Z,16.17
2023-03-18T20:27:49.431Z,16.80
2023-03-18T20:30:37.278Z,17.27
2023-03-18T20:33:05.932Z,17.03
2023-03-18T20:35:34.786Z,16.73
2023-03-18T20:38:06.733Z,16.27
2023-03-18T20:40:34.823Z,17.43
2023-03-18T20:43:10.624Z,17.47
2023-03-18T20:45:38.610Z,17.00
2023-03-18T20:48:06.794Z,17.93
2023-03-18T20:50:40.947Z,16.97
2023-03-18T20:53:15.218Z,18.73
2023-03-18T20:55:50.117Z,17.97
2023-03-18T20:58:18.625Z,19.20
2023-03-18T21:00:47.005Z,19.40
2023-03-18T21:03:33.773Z,20.40
2023-03-18T21:06:03.226Z,18.93
2023-03-18T21:08:32.014Z,19.33
2023-03-18T21:11:01.887Z,19.47
2023-03-18T21:13:35.457Z,20.23
2023-03-18T21:16:03.606Z,19.27
2023-03-18T21:18:30.757Z,20.07
2023-03-18T21:20:57.980Z,19.50
2023-03-18T21:23:28.730Z,19.07
2023-03-18T21:25:56.533Z,20.17
2023-03-18T21:28:25.566Z,18.93
2023-03-18T21:30:56.197Z,18.30
2023-03-18T21:33:28.021Z,19.90
2023-03-18T21:36:03.954Z,20.73
2023-03-18T21:38:35.829Z,23.37
2023-03-18T21:41:03.303Z,24.87
2023-03-18T21:43:33.035Z,23.73
2023-03-18T21:46:00.885Z,25.57
2023-03-18T21:48:33.376Z,24.97
2023-03-18T21:51:01.630Z,25.37
2023-03-18T21:53:29.287Z,25.13
2023-03-18T21:55:56.388Z,24.27
2023-03-18T21:58:26.443Z,24.07
2023-03-18T22:00:54.681Z,21.10
2023-03-18T22:03:23.341Z,21.13
2023-03-18T22:05:52.128Z,21.43
2023-03-18T22:08:20.197Z,22.37
2023-03-18T22:10:57.022Z,22.07
2023-03-18T22:13:25.278Z,21.90
2023-03-18T22:15:56.624Z,21.17
2023-03-18T22:18:24.250Z,22.10
2023-03-18T22:20:51.938Z,20.87
2023-03-18T22:23:26.340Z,20.93
2023-03-18T22:25:57.479Z,21.47
2023-03-18T22:28:33.586Z,21.47
2023-03-18T22:31:07.192Z,20.93
2023-03-18T22:33:34.570Z,22.00
2023-03-18T22:36:01.972Z,21.00
2023-03-18T22:38:29.274Z,22.13
2023-03-18T22:40:57.079Z,21.20
2023-03-18T22:43:50.246Z,21.17
2023-03-18T22:46:17.949Z,20.87
2023-03-18T22:48:45.110Z,21.67
2023-03-18T22:51:28.973Z,23.17
2023-03-18T22:53:56.158Z,29.70
2023-03-18T22:56:23.499Z,30.37
2023-03-18T22:58:53.128Z,30.53
2023-03-18T23:01:47.124Z,30.53
2023-03-18T23:04:14.308Z,31.63
2023-03-18T23:06:41.903Z,33.07
2023-03-18T23:09:10.429Z,36.87
2023-03-18T23:11:37.505Z,35.67
2023-03-18T23:14:04.597Z,34.80
2023-03-18T23:16:31.647Z,32.20
2023-03-18T23:18:59.214Z,32.60
2023-03-18T23:21:33.150Z,30.93
2023-03-18T23:24:00.191Z,29.70
2023-03-18T23:26:27.319Z,31.47
2023-03-18T23:28:54.361Z,30.17
2023-03-18T23:31:21.438Z,28.83
2023-03-18T23:33:48.593Z,29.03
2023-03-18T23:36:16.015Z,28.57
2023-03-18T23:38:43.118Z,28.67
2023-03-18T23:41:10.323Z,27.50
2023-03-18T23:43:37.364Z,26.83
2023-03-18T23:46:04.496Z,25.37
2023-03-18T23:48:31.759Z,24.03
2023-03-18T23:50:58.801Z,24.27
2023-03-18T23:53:26.111Z,24.70
2023-03-18T23:55:53.154Z,25.43
2023-03-18T23:58:20.266Z,24.47
